sensor_id;sensor_type;location;lat;lon;timestamp;temperature;humidity
51486;DHT22;37565;51.352;6.412;2022-08-19T00:01:43;24.70;99.90
51486;DHT22;37565;51.352;6.412;2022-08-19T00:04:21;24.70;99.90
51486;DHT22;37565;51.352;6.412;2022-08-19T00:06:49;24.70;99.90
51486;DHT22;37565;51.352;6.412;2022-08-19T00:09:21;24.70;99.90
51486;DHT22;37565;51.352;6.412;2022-08-19T00:11:49;24.70;99.90
51486;DHT22;37565;51.352;6.412;2022-08-19T00:14:18;24.70;99.90
51486;DHT22;37565;51.352;6.412;2022-08-19T00:16:48;24.70;99.90
51486;DHT22;37565;51.352;6.412;2022-08-19T00:19:18;24.70;99.90
51486;DHT22;37565;51.352;6.412;2022-08-19T00:21:46;24.70;99.90
51486;DHT22;37565;51.352;6.412;2022-08-19T00:24:15;24.70;99.90
51486;DHT22;37565;51.352;6.412;2022-08-19T00:26:44;24.70;99.90
51486;DHT22;37565;51.352;6.412;2022-08-19T00:29:14;24.70;99.90
51486;DHT22;37565;51.352;6.412;2022-08-19T00:31:43;24.70;99.90
51486;DHT22;37565;51.352;6.412;2022-08-19T00:34:14;24.70;99.90
51486;DHT22;37565;51.352;6.412;2022-08-19T00:36:42;24.70;99.90
51486;DHT22;37565;51.352;6.412;2022-08-19T00:39:11;24.70;99.90
51486;DHT22;37565;51.352;6.412;2022-08-19T00:41:40;24.70;99.90
51486;DHT22;37565;51.352;6.412;2022-08-19T00:44:11;24.70;99.90
51486;DHT22;37565;51.352;6.412;2022-08-19T00:46:42;24.70;99.90
51486;DHT22;37565;51.352;6.412;2022-08-19T00:49:27;24.70;99.90
51486;DHT22;37565;51.352;6.412;2022-08-19T00:52:00;24.70;99.90
51486;DHT22;37565;51.352;6.412;2022-08-19T00:54:29;24.70;99.90
51486;DHT22;37565;51.352;6.412;2022-08-19T00:57:00;24.70;99.90
51486;DHT22;37565;51.352;6.412;2022-08-19T00:59:29;24.70;99.90
51486;DHT22;37565;51.352;6.412;2022-08-19T01:02:17;24.70;99.90
51486;DHT22;37565;51.352;6.412;2022-08-19T01:04:48;24.70;99.90
51486;DHT22;37565;51.352;6.412;2022-08-19T01:07:16;24.70;99.90
51486;DHT22;37565;51.352;6.412;2022-08-19T01:09:45;24.70;99.90
51486;DHT22;37565;51.352;6.412;2022-08-19T01:12:14;24.70;99.90
51486;DHT22;37565;51.352;6.412;2022-08-19T01:14:42;24.70;99.90
51486;DHT22;37565;51.352;6.412;2022-08-19T01:17:12;24.70;99.90
51486;DHT22;37565;51.352;6.412;2022-08-19T01:19:42;24.70;99.90
51486;DHT22;37565;51.352;6.412;2022-08-19T01:22:16;24.70;99.90
51486;DHT22;37565;51.352;6.412;2022-08-19T01:24:54;24.70;99.90
51486;DHT22;37565;51.352;6.412;2022-08-19T01:27:22;24.70;99.90
51486;DHT22;37565;51.352;6.412;2022-08-19T01:29:50;24.70;99.90
51486;DHT22;37565;51.352;6.412;2022-08-19T01:32:18;24.70;99.90
51486;DHT22;37565;51.352;6.412;2022-08-19T01:34:59;24.70;99.90
51486;DHT22;37565;51.352;6.412;2022-08-19T01:37:30;24.70;99.90
51486;DHT22;37565;51.352;6.412;2022-08-19T01:39:59;24.70;99.90
51486;DHT22;37565;51.352;6.412;2022-08-19T01:42:33;24.60;99.90
51486;DHT22;37565;51.352;6.412;2022-08-19T01:45:02;24.70;99.90
51486;DHT22;37565;51.352;6.412;2022-08-19T01:47:30;24.60;99.90
51486;DHT22;37565;51.352;6.412;2022-08-19T01:49:58;24.70;99.90
51486;DHT22;37565;51.352;6.412;2022-08-19T01:52:26;24.60;99.90
51486;DHT22;37565;51.352;6.412;2022-08-19T01:54:55;24.60;99.90
51486;DHT22;37565;51.352;6.412;2022-08-19T01:57:24;24.70;99.90
51486;DHT22;37565;51.352;6.412;2022-08-19T01:59:52;24.70;99.90
51486;DHT22;37565;51.352;6.412;2022-08-19T02:02:20;24.60;99.90
51486;DHT22;37565;51.352;6.412;2022-08-19T02:04:48;24.70;99.90
51486;DHT22;37565;51.352;6.412;2022-08-19T02:07:19;24.60;99.90
51486;DHT22;37565;51.352;6.412;2022-08-19T02:09:48;24.60;99.90
51486;DHT22;37565;51.352;6.412;2022-08-19T02:12:16;24.70;99.90
51486;DHT22;37565;51.352;6.412;2022-08-19T02:14:46;24.60;99.90
51486;DHT22;37565;51.352;6.412;2022-08-19T02:17:14;24.70;99.90
51486;DHT22;37565;51.352;6.412;2022-08-19T02:19:42;24.60;99.90
51486;DHT22;37565;51.352;6.412;2022-08-19T02:22:10;24.60;99.90
51486;DHT22;37565;51.352;6.412;2022-08-19T02:24:38;24.60;99.90
51486;DHT22;37565;51.352;6.412;2022-08-19T02:27:06;24.60;99.90
51486;DHT22;37565;51.352;6.412;2022-08-19T02:29:34;24.60;99.90
51486;DHT22;37565;51.352;6.412;2022-08-19T02:32:04;24.60;99.90
51486;DHT22;37565;51.352;6.412;2022-08-19T02:34:32;24.60;99.90
51486;DHT22;37565;51.352;6.412;2022-08-19T02:37:00;24.60;99.90
51486;DHT22;37565;51.352;6.412;2022-08-19T02:39:29;24.60;99.90
51486;DHT22;37565;51.352;6.412;2022-08-19T02:41:56;24.60;99.90
51486;DHT22;37565;51.352;6.412;2022-08-19T02:44:26;24.60;99.90
51486;DHT22;37565;51.352;6.412;2022-08-19T02:46:57;24.60;99.90
51486;DHT22;37565;51.352;6.412;2022-08-19T02:49:27;24.60;99.90
51486;DHT22;37565;51.352;6.412;2022-08-19T02:52:00;24.60;99.90
51486;DHT22;37565;51.352;6.412;2022-08-19T02:54:29;24.60;99.90
51486;DHT22;37565;51.352;6.412;2022-08-19T02:56:57;24.60;99.90
51486;DHT22;37565;51.352;6.412;2022-08-19T02:59:25;24.60;99.90
51486;DHT22;37565;51.352;6.412;2022-08-19T03:01:53;24.60;99.90
51486;DHT22;37565;51.352;6.412;2022-08-19T03:04:21;24.60;99.90
51486;DHT22;37565;51.352;6.412;2022-08-19T03:06:51;24.60;99.90
51486;DHT22;37565;51.352;6.412;2022-08-19T03:09:20;24.60;99.90
51486;DHT22;37565;51.352;6.412;2022-08-19T03:11:48;24.60;99.90
51486;DHT22;37565;51.352;6.412;2022-08-19T03:14:19;24.60;99.90
51486;DHT22;37565;51.352;6.412;2022-08-19T03:16:48;24.60;99.90
51486;DHT22;37565;51.352;6.412;2022-08-19T03:19:18;24.60;99.90
51486;DHT22;37565;51.352;6.412;2022-08-19T03:21:47;24.50;99.90
51486;DHT22;37565;51.352;6.412;2022-08-19T03:24:17;24.60;99.90
51486;DHT22;37565;51.352;6.412;2022-08-19T03:26:48;24.50;99.90
51486;DHT22;37565;51.352;6.412;2022-08-19T03:29:18;24.60;99.90
51486;DHT22;37565;51.352;6.412;2022-08-19T03:31:56;24.60;99.90
51486;DHT22;37565;51.352;6.412;2022-08-19T03:34:26;24.60;99.90
51486;DHT22;37565;51.352;6.412;2022-08-19T03:36:56;24.50;99.90
51486;DHT22;37565;51.352;6.412;2022-08-19T03:39:26;24.50;99.90
51486;DHT22;37565;51.352;6.412;2022-08-19T03:41:55;24.50;99.90
51486;DHT22;37565;51.352;6.412;2022-08-19T03:44:46;24.50;99.90
51486;DHT22;37565;51.352;6.412;2022-08-19T03:47:14;24.50;99.90
51486;DHT22;37565;51.352;6.412;2022-08-19T03:49:44;24.50;99.90
51486;DHT22;37565;51.352;6.412;2022-08-19T03:52:12;24.50;99.90
51486;DHT22;37565;51.352;6.412;2022-08-19T03:54:42;24.50;99.90
51486;DHT22;37565;51.352;6.412;2022-08-19T03:57:10;24.50;99.90
51486;DHT22;37565;51.352;6.412;2022-08-19T03:59:38;24.50;99.90
51486;DHT22;37565;51.352;6.412;2022-08-19T04:02:09;24.50;99.90
51486;DHT22;37565;51.352;6.412;2022-08-19T04:04:38;24.50;99.90
51486;DHT22;37565;51.352;6.412;2022-08-19T04:07:06;24.50;99.90
51486;DHT22;37565;51.352;6.412;2022-08-19T04:09:36;24.50;99.90
51486;DHT22;37565;51.352;6.412;2022-08-19T04:12:07;24.50;99.90
51486;DHT22;37565;51.352;6.412;2022-08-19T04:14:35;24.50;99.90
51486;DHT22;37565;51.352;6.412;2022-08-19T04:17:04;24.50;99.90
51486;DHT22;37565;51.352;6.412;2022-08-19T04:19:33;24.50;99.90
51486;DHT22;37565;51.352;6.412;2022-08-19T04:22:02;24.50;99.90
51486;DHT22;37565;51.352;6.412;2022-08-19T04:24:31;24.50;99.90
51486;DHT22;37565;51.352;6.412;2022-08-19T04:26:59;24.50;99.90
51486;DHT22;37565;51.352;6.412;2022-08-19T04:29:30;24.50;99.90
51486;DHT22;37565;51.352;6.412;2022-08-19T04:31:58;24.50;99.90
51486;DHT22;37565;51.352;6.412;2022-08-19T04:34:35;24.50;99.90
51486;DHT22;37565;51.352;6.412;2022-08-19T04:37:23;24.50;99.90
51486;DHT22;37565;51.352;6.412;2022-08-19T04:40:00;24.50;99.90
51486;DHT22;37565;51.352;6.412;2022-08-19T04:42:46;24.50;99.90
51486;DHT22;37565;51.352;6.412;2022-08-19T04:45:15;24.50;99.90
51486;DHT22;37565;51.352;6.412;2022-08-19T04:47:44;24.50;99.90
51486;DHT22;37565;51.352;6.412;2022-08-19T04:50:25;24.50;99.90
51486;DHT22;37565;51.352;6.412;2022-08-19T04:52:53;24.50;99.90
51486;DHT22;37565;51.352;6.412;2022-08-19T04:55:22;24.40;99.90
51486;DHT22;37565;51.352;6.412;2022-08-19T04:57:52;24.50;99.90
51486;DHT22;37565;51.352;6.412;2022-08-19T05:00:21;24.40;99.90
51486;DHT22;37565;51.352;6.412;2022-08-19T05:02:49;24.40;99.90
51486;DHT22;37565;51.352;6.412;2022-08-19T05:05:18;24.50;99.90
51486;DHT22;37565;51.352;6.412;2022-08-19T05:07:46;24.50;99.90
51486;DHT22;37565;51.352;6.412;2022-08-19T05:10:14;24.50;99.90
51486;DHT22;37565;51.352;6.412;2022-08-19T05:12:42;24.40;99.90
51486;DHT22;37565;51.352;6.412;2022-08-19T05:15:10;24.40;99.90
51486;DHT22;37565;51.352;6.412;2022-08-19T05:17:39;24.40;99.90
51486;DHT22;37565;51.352;6.412;2022-08-19T05:20:28;24.40;99.90
51486;DHT22;37565;51.352;6.412;2022-08-19T05:23:14;24.20;99.90
51486;DHT22;37565;51.352;6.412;2022-08-19T05:25:48;24.00;99.90
51486;DHT22;37565;51.352;6.412;2022-08-19T05:28:16;23.80;99.90
51486;DHT22;37565;51.352;6.412;2022-08-19T05:30:45;23.60;99.90
51486;DHT22;37565;51.352;6.412;2022-08-19T05:33:14;23.50;99.90
51486;DHT22;37565;51.352;6.412;2022-08-19T05:35:42;23.40;99.90
51486;DHT22;37565;51.352;6.412;2022-08-19T05:38:11;23.30;99.90
51486;DHT22;37565;51.352;6.412;2022-08-19T05:40:39;23.40;99.90
51486;DHT22;37565;51.352;6.412;2022-08-19T05:43:08;23.50;99.90
51486;DHT22;37565;51.352;6.412;2022-08-19T05:45:40;23.60;99.90
51486;DHT22;37565;51.352;6.412;2022-08-19T05:48:08;23.70;99.90
51486;DHT22;37565;51.352;6.412;2022-08-19T05:50:40;23.80;99.90
51486;DHT22;37565;51.352;6.412;2022-08-19T05:53:08;23.90;99.90
51486;DHT22;37565;51.352;6.412;2022-08-19T05:55:36;23.90;99.90
51486;DHT22;37565;51.352;6.412;2022-08-19T05:58:06;23.90;99.90
51486;DHT22;37565;51.352;6.412;2022-08-19T06:00:35;23.90;99.90
51486;DHT22;37565;51.352;6.412;2022-08-19T06:03:03;24.00;99.90
51486;DHT22;37565;51.352;6.412;2022-08-19T06:05:40;24.00;99.90
51486;DHT22;37565;51.352;6.412;2022-08-19T06:08:18;24.00;99.90
51486;DHT22;37565;51.352;6.412;2022-08-19T06:11:12;24.00;99.90
51486;DHT22;37565;51.352;6.412;2022-08-19T06:13:40;23.90;99.90
51486;DHT22;37565;51.352;6.412;2022-08-19T06:16:08;23.90;99.90
51486;DHT22;37565;51.352;6.412;2022-08-19T06:18:36;23.80;99.90
51486;DHT22;37565;51.352;6.412;2022-08-19T06:21:06;23.80;99.90
51486;DHT22;37565;51.352;6.412;2022-08-19T06:23:34;23.80;99.90
51486;DHT22;37565;51.352;6.412;2022-08-19T06:26:02;23.80;99.90
51486;DHT22;37565;51.352;6.412;2022-08-19T06:28:30;23.90;99.90
51486;DHT22;37565;51.352;6.412;2022-08-19T06:31:04;23.90;99.90
51486;DHT22;37565;51.352;6.412;2022-08-19T06:33:33;23.80;99.90
51486;DHT22;37565;51.352;6.412;2022-08-19T06:36:01;23.90;99.90
51486;DHT22;37565;51.352;6.412;2022-08-19T06:38:31;23.90;99.90
51486;DHT22;37565;51.352;6.412;2022-08-19T06:41:01;23.90;99.90
51486;DHT22;37565;51.352;6.412;2022-08-19T06:43:33;23.90;99.90
51486;DHT22;37565;51.352;6.412;2022-08-19T06:46:11;23.90;99.90
51486;DHT22;37565;51.352;6.412;2022-08-19T06:48:40;23.90;99.90
51486;DHT22;37565;51.352;6.412;2022-08-19T06:51:12;23.90;99.90
51486;DHT22;37565;51.352;6.412;2022-08-19T06:53:46;23.90;99.90
51486;DHT22;37565;51.352;6.412;2022-08-19T06:56:23;24.00;99.90
51486;DHT22;37565;51.352;6.412;2022-08-19T06:58:57;24.00;99.90
51486;DHT22;37565;51.352;6.412;2022-08-19T07:01:25;24.00;99.90
51486;DHT22;37565;51.352;6.412;2022-08-19T07:03:54;24.00;99.90
51486;DHT22;37565;51.352;6.412;2022-08-19T07:06:24;24.00;99.90
51486;DHT22;37565;51.352;6.412;2022-08-19T07:09:13;23.90;99.90
51486;DHT22;37565;51.352;6.412;2022-08-19T07:11:45;23.90;99.90
51486;DHT22;37565;51.352;6.412;2022-08-19T07:14:13;23.90;99.90
51486;DHT22;37565;51.352;6.412;2022-08-19T07:16:46;23.90;99.90
51486;DHT22;37565;51.352;6.412;2022-08-19T07:19:15;23.90;99.90
51486;DHT22;37565;51.352;6.412;2022-08-19T07:21:45;24.00;99.90
51486;DHT22;37565;51.352;6.412;2022-08-19T07:24:15;24.00;99.90
51486;DHT22;37565;51.352;6.412;2022-08-19T07:26:44;24.00;99.90
51486;DHT22;37565;51.352;6.412;2022-08-19T07:29:18;24.00;99.90
51486;DHT22;37565;51.352;6.412;2022-08-19T07:31:54;24.00;99.90
51486;DHT22;37565;51.352;6.412;2022-08-19T07:34:27;24.00;99.90
51486;DHT22;37565;51.352;6.412;2022-08-19T07:36:56;24.00;99.90
51486;DHT22;37565;51.352;6.412;2022-08-19T07:39:29;24.00;99.90
51486;DHT22;37565;51.352;6.412;2022-08-19T07:41:59;24.00;99.90
51486;DHT22;37565;51.352;6.412;2022-08-19T07:44:27;24.00;99.90
51486;DHT22;37565;51.352;6.412;2022-08-19T07:46:57;24.00;99.90
51486;DHT22;37565;51.352;6.412;2022-08-19T07:49:25;24.10;99.90
51486;DHT22;37565;51.352;6.412;2022-08-19T07:51:55;24.10;99.90
51486;DHT22;37565;51.352;6.412;2022-08-19T07:56:56;24.20;99.90
51486;DHT22;37565;51.352;6.412;2022-08-19T07:59:24;24.10;99.90
51486;DHT22;37565;51.352;6.412;2022-08-19T08:01:52;24.10;99.90
51486;DHT22;37565;51.352;6.412;2022-08-19T08:04:21;24.00;99.90
51486;DHT22;37565;51.352;6.412;2022-08-19T08:07:07;24.10;99.90
51486;DHT22;37565;51.352;6.412;2022-08-19T08:09:58;24.00;99.90
51486;DHT22;37565;51.352;6.412;2022-08-19T08:12:33;24.00;99.90
51486;DHT22;37565;51.352;6.412;2022-08-19T08:15:04;24.00;99.90
51486;DHT22;37565;51.352;6.412;2022-08-19T08:17:38;24.00;99.90
51486;DHT22;37565;51.352;6.412;2022-08-19T08:20:18;24.00;99.90
51486;DHT22;37565;51.352;6.412;2022-08-19T08:22:47;23.90;99.90
51486;DHT22;37565;51.352;6.412;2022-08-19T08:25:36;24.00;99.90
51486;DHT22;37565;51.352;6.412;2022-08-19T08:28:05;24.00;99.90
51486;DHT22;37565;51.352;6.412;2022-08-19T08:30:43;24.00;99.90
51486;DHT22;37565;51.352;6.412;2022-08-19T08:33:17;24.00;99.90
51486;DHT22;37565;51.352;6.412;2022-08-19T08:36:00;24.00;99.90
51486;DHT22;37565;51.352;6.412;2022-08-19T08:38:30;24.00;99.90
51486;DHT22;37565;51.352;6.412;2022-08-19T08:41:09;24.00;99.90
51486;DHT22;37565;51.352;6.412;2022-08-19T08:43:46;24.00;99.90
51486;DHT22;37565;51.352;6.412;2022-08-19T08:46:18;24.00;99.90
51486;DHT22;37565;51.352;6.412;2022-08-19T08:49:02;24.10;99.90
51486;DHT22;37565;51.352;6.412;2022-08-19T08:51:38;24.10;99.90
51486;DHT22;37565;51.352;6.412;2022-08-19T08:54:13;24.10;99.90
51486;DHT22;37565;51.352;6.412;2022-08-19T08:56:41;24.20;99.90
51486;DHT22;37565;51.352;6.412;2022-08-19T08:59:16;24.20;99.90
51486;DHT22;37565;51.352;6.412;2022-08-19T09:01:46;24.10;99.90
51486;DHT22;37565;51.352;6.412;2022-08-19T09:04:15;24.10;99.90
51486;DHT22;37565;51.352;6.412;2022-08-19T09:06:49;24.20;99.90
51486;DHT22;37565;51.352;6.412;2022-08-19T09:09:22;24.20;99.90
51486;DHT22;37565;51.352;6.412;2022-08-19T09:12:00;24.20;99.90
51486;DHT22;37565;51.352;6.412;2022-08-19T09:14:37;24.10;99.90
51486;DHT22;37565;51.352;6.412;2022-08-19T09:17:19;24.20;99.90
51486;DHT22;37565;51.352;6.412;2022-08-19T09:19:57;24.20;99.90
51486;DHT22;37565;51.352;6.412;2022-08-19T09:22:27;24.20;99.90
51486;DHT22;37565;51.352;6.412;2022-08-19T09:24:55;24.20;99.90
51486;DHT22;37565;51.352;6.412;2022-08-19T09:27:26;24.20;99.90
51486;DHT22;37565;51.352;6.412;2022-08-19T09:30:14;24.20;99.90
51486;DHT22;37565;51.352;6.412;2022-08-19T09:32:43;24.20;99.90
51486;DHT22;37565;51.352;6.412;2022-08-19T09:35:13;24.20;99.90
51486;DHT22;37565;51.352;6.412;2022-08-19T09:37:42;24.30;99.90
51486;DHT22;37565;51.352;6.412;2022-08-19T09:40:13;24.20;99.90
51486;DHT22;37565;51.352;6.412;2022-08-19T09:42:42;24.30;99.90
51486;DHT22;37565;51.352;6.412;2022-08-19T09:45:19;24.30;99.90
51486;DHT22;37565;51.352;6.412;2022-08-19T09:47:49;24.30;99.90
51486;DHT22;37565;51.352;6.412;2022-08-19T09:50:21;24.30;99.90
51486;DHT22;37565;51.352;6.412;2022-08-19T09:52:50;24.30;99.90
51486;DHT22;37565;51.352;6.412;2022-08-19T09:55:24;24.30;99.90
51486;DHT22;37565;51.352;6.412;2022-08-19T09:57:58;24.30;99.90
51486;DHT22;37565;51.352;6.412;2022-08-19T10:00:29;24.40;99.90
51486;DHT22;37565;51.352;6.412;2022-08-19T10:02:57;24.30;99.90
51486;DHT22;37565;51.352;6.412;2022-08-19T10:05:26;24.40;99.90
51486;DHT22;37565;51.352;6.412;2022-08-19T10:08:15;24.40;99.90
51486;DHT22;37565;51.352;6.412;2022-08-19T10:10:46;24.40;99.90
51486;DHT22;37565;51.352;6.412;2022-08-19T10:13:18;24.40;99.90
51486;DHT22;37565;51.352;6.412;2022-08-19T10:15:50;24.40;99.90
51486;DHT22;37565;51.352;6.412;2022-08-19T10:18:20;24.40;99.90
51486;DHT22;37565;51.352;6.412;2022-08-19T10:20:50;24.50;99.90
51486;DHT22;37565;51.352;6.412;2022-08-19T10:23:20;24.40;99.90
51486;DHT22;37565;51.352;6.412;2022-08-19T10:25:49;24.40;99.90
51486;DHT22;37565;51.352;6.412;2022-08-19T10:28:18;24.50;99.90
51486;DHT22;37565;51.352;6.412;2022-08-19T10:30:46;24.50;99.90
51486;DHT22;37565;51.352;6.412;2022-08-19T10:33:15;24.50;99.90
51486;DHT22;37565;51.352;6.412;2022-08-19T10:36:06;24.50;99.90
51486;DHT22;37565;51.352;6.412;2022-08-19T10:38:34;24.50;99.90
51486;DHT22;37565;51.352;6.412;2022-08-19T10:41:10;24.50;99.90
51486;DHT22;37565;51.352;6.412;2022-08-19T10:43:38;24.50;99.90
51486;DHT22;37565;51.352;6.412;2022-08-19T10:46:08;24.50;99.90
51486;DHT22;37565;51.352;6.412;2022-08-19T10:48:43;24.60;99.90
51486;DHT22;37565;51.352;6.412;2022-08-19T10:51:12;24.60;99.90
51486;DHT22;37565;51.352;6.412;2022-08-19T10:53:58;24.60;99.90
51486;DHT22;37565;51.352;6.412;2022-08-19T10:56:27;24.60;99.90
51486;DHT22;37565;51.352;6.412;2022-08-19T10:59:14;24.60;99.90
51486;DHT22;37565;51.352;6.412;2022-08-19T11:01:44;24.60;99.90
51486;DHT22;37565;51.352;6.412;2022-08-19T11:04:13;24.60;99.90
51486;DHT22;37565;51.352;6.412;2022-08-19T11:06:45;24.60;99.90
51486;DHT22;37565;51.352;6.412;2022-08-19T11:09:15;24.60;99.90
51486;DHT22;37565;51.352;6.412;2022-08-19T11:11:43;24.60;99.90
51486;DHT22;37565;51.352;6.412;2022-08-19T11:14:14;24.70;99.90
51486;DHT22;37565;51.352;6.412;2022-08-19T11:16:42;24.60;99.90
51486;DHT22;37565;51.352;6.412;2022-08-19T11:19:11;24.60;99.90
51486;DHT22;37565;51.352;6.412;2022-08-19T11:21:42;24.60;99.90
51486;DHT22;37565;51.352;6.412;2022-08-19T11:24:15;24.70;99.90
51486;DHT22;37565;51.352;6.412;2022-08-19T11:26:44;24.70;99.90
51486;DHT22;37565;51.352;6.412;2022-08-19T11:29:13;24.70;99.90
51486;DHT22;37565;51.352;6.412;2022-08-19T11:31:43;24.70;99.90
51486;DHT22;37565;51.352;6.412;2022-08-19T11:34:12;24.70;99.90
51486;DHT22;37565;51.352;6.412;2022-08-19T11:36:43;24.70;99.90
51486;DHT22;37565;51.352;6.412;2022-08-19T11:39:14;24.70;99.90
51486;DHT22;37565;51.352;6.412;2022-08-19T11:41:42;24.70;99.90
51486;DHT22;37565;51.352;6.412;2022-08-19T11:44:11;24.70;99.90
51486;DHT22;37565;51.352;6.412;2022-08-19T11:46:42;24.70;99.90
51486;DHT22;37565;51.352;6.412;2022-08-19T11:49:12;24.70;99.90
51486;DHT22;37565;51.352;6.412;2022-08-19T11:51:42;24.70;99.90
51486;DHT22;37565;51.352;6.412;2022-08-19T11:54:11;24.70;99.90
51486;DHT22;37565;51.352;6.412;2022-08-19T11:56:40;24.80;99.90
51486;DHT22;37565;51.352;6.412;2022-08-19T11:59:09;24.80;99.90
51486;DHT22;37565;51.352;6.412;2022-08-19T12:01:41;24.80;99.90
51486;DHT22;37565;51.352;6.412;2022-08-19T12:04:10;24.80;99.90
51486;DHT22;37565;51.352;6.412;2022-08-19T12:06:39;24.80;99.90
51486;DHT22;37565;51.352;6.412;2022-08-19T12:09:10;24.80;99.90
51486;DHT22;37565;51.352;6.412;2022-08-19T12:11:38;24.80;99.90
51486;DHT22;37565;51.352;6.412;2022-08-19T12:14:09;24.80;99.90
51486;DHT22;37565;51.352;6.412;2022-08-19T12:16:41;24.80;99.90
51486;DHT22;37565;51.352;6.412;2022-08-19T12:19:18;24.80;99.90
51486;DHT22;37565;51.352;6.412;2022-08-19T12:21:48;24.90;99.40
51486;DHT22;37565;51.352;6.412;2022-08-19T12:24:18;25.00;97.80
51486;DHT22;37565;51.352;6.412;2022-08-19T12:26:50;25.00;96.40
51486;DHT22;37565;51.352;6.412;2022-08-19T12:29:20;25.00;95.70
51486;DHT22;37565;51.352;6.412;2022-08-19T12:31:50;25.00;96.40
51486;DHT22;37565;51.352;6.412;2022-08-19T12:34:18;25.00;96.70
51486;DHT22;37565;51.352;6.412;2022-08-19T12:36:46;25.00;97.20
51486;DHT22;37565;51.352;6.412;2022-08-19T12:39:17;25.00;97.40
51486;DHT22;37565;51.352;6.412;2022-08-19T12:41:45;25.00;97.50
51486;DHT22;37565;51.352;6.412;2022-08-19T12:44:21;25.00;97.60
51486;DHT22;37565;51.352;6.412;2022-08-19T12:46:58;25.00;97.90
51486;DHT22;37565;51.352;6.412;2022-08-19T12:49:27;25.00;98.30
51486;DHT22;37565;51.352;6.412;2022-08-19T12:52:15;25.00;98.20
51486;DHT22;37565;51.352;6.412;2022-08-19T12:54:51;25.00;98.40
51486;DHT22;37565;51.352;6.412;2022-08-19T12:57:19;25.00;98.80
51486;DHT22;37565;51.352;6.412;2022-08-19T12:59:57;25.00;99.20
51486;DHT22;37565;51.352;6.412;2022-08-19T13:02:25;25.00;99.50
51486;DHT22;37565;51.352;6.412;2022-08-19T13:04:53;25.00;99.80
51486;DHT22;37565;51.352;6.412;2022-08-19T13:07:21;24.90;99.90
51486;DHT22;37565;51.352;6.412;2022-08-19T13:09:52;24.90;99.90
51486;DHT22;37565;51.352;6.412;2022-08-19T13:12:20;24.90;99.90
51486;DHT22;37565;51.352;6.412;2022-08-19T13:14:51;24.90;99.90
51486;DHT22;37565;51.352;6.412;2022-08-19T13:17:19;24.90;99.90
51486;DHT22;37565;51.352;6.412;2022-08-19T13:19:47;24.90;99.90
51486;DHT22;37565;51.352;6.412;2022-08-19T13:22:15;24.90;99.90
51486;DHT22;37565;51.352;6.412;2022-08-19T13:24:44;24.90;99.90
51486;DHT22;37565;51.352;6.412;2022-08-19T13:27:14;25.00;99.90
51486;DHT22;37565;51.352;6.412;2022-08-19T13:29:42;25.00;99.90
51486;DHT22;37565;51.352;6.412;2022-08-19T13:32:29;25.00;99.90
51486;DHT22;37565;51.352;6.412;2022-08-19T13:35:15;25.00;99.90
51486;DHT22;37565;51.352;6.412;2022-08-19T13:37:44;25.00;99.90
51486;DHT22;37565;51.352;6.412;2022-08-19T13:40:14;25.00;99.90
51486;DHT22;37565;51.352;6.412;2022-08-19T13:42:48;25.00;99.90
51486;DHT22;37565;51.352;6.412;2022-08-19T13:45:19;24.90;99.90
51486;DHT22;37565;51.352;6.412;2022-08-19T13:47:47;24.90;99.90
51486;DHT22;37565;51.352;6.412;2022-08-19T13:50:21;24.90;99.90
51486;DHT22;37565;51.352;6.412;2022-08-19T13:52:49;24.90;99.90
51486;DHT22;37565;51.352;6.412;2022-08-19T13:55:20;24.90;99.90
51486;DHT22;37565;51.352;6.412;2022-08-19T13:57:53;24.90;99.90
51486;DHT22;37565;51.352;6.412;2022-08-19T14:00:23;24.90;99.90
51486;DHT22;37565;51.352;6.412;2022-08-19T14:02:55;24.90;99.90
51486;DHT22;37565;51.352;6.412;2022-08-19T14:05:25;24.90;99.90
51486;DHT22;37565;51.352;6.412;2022-08-19T14:07:54;24.90;99.90
51486;DHT22;37565;51.352;6.412;2022-08-19T14:10:24;24.90;99.90
51486;DHT22;37565;51.352;6.412;2022-08-19T14:12:54;24.90;99.90
51486;DHT22;37565;51.352;6.412;2022-08-19T14:15:25;24.90;99.90
51486;DHT22;37565;51.352;6.412;2022-08-19T14:17:53;24.90;99.90
51486;DHT22;37565;51.352;6.412;2022-08-19T14:20:22;24.90;99.90
51486;DHT22;37565;51.352;6.412;2022-08-19T14:22:52;24.90;99.90
51486;DHT22;37565;51.352;6.412;2022-08-19T14:25:23;24.90;99.90
51486;DHT22;37565;51.352;6.412;2022-08-19T14:27:52;24.90;99.90
51486;DHT22;37565;51.352;6.412;2022-08-19T14:30:23;24.90;99.90
51486;DHT22;37565;51.352;6.412;2022-08-19T14:32:54;24.90;99.90
51486;DHT22;37565;51.352;6.412;2022-08-19T14:35:22;24.90;99.90
51486;DHT22;37565;51.352;6.412;2022-08-19T14:37:51;24.90;99.90
51486;DHT22;37565;51.352;6.412;2022-08-19T14:40:24;24.90;99.90
51486;DHT22;37565;51.352;6.412;2022-08-19T14:42:53;24.90;99.90
51486;DHT22;37565;51.352;6.412;2022-08-19T14:45:34;24.90;99.90
51486;DHT22;37565;51.352;6.412;2022-08-19T14:48:03;24.90;99.90
51486;DHT22;37565;51.352;6.412;2022-08-19T14:50:31;24.90;99.90
51486;DHT22;37565;51.352;6.412;2022-08-19T14:53:01;24.90;99.90
51486;DHT22;37565;51.352;6.412;2022-08-19T14:55:42;24.90;99.90
51486;DHT22;37565;51.352;6.412;2022-08-19T14:58:11;24.90;99.90
51486;DHT22;37565;51.352;6.412;2022-08-19T15:00:58;24.90;99.90
51486;DHT22;37565;51.352;6.412;2022-08-19T15:03:26;25.00;99.90
51486;DHT22;37565;51.352;6.412;2022-08-19T15:05:55;25.00;99.90
51486;DHT22;37565;51.352;6.412;2022-08-19T15:08:24;25.00;99.90
51486;DHT22;37565;51.352;6.412;2022-08-19T15:10:53;25.00;99.90
51486;DHT22;37565;51.352;6.412;2022-08-19T15:13:21;25.00;99.90
51486;DHT22;37565;51.352;6.412;2022-08-19T15:15:51;25.00;99.90
51486;DHT22;37565;51.352;6.412;2022-08-19T15:18:21;25.00;99.90
51486;DHT22;37565;51.352;6.412;2022-08-19T15:20:49;25.00;99.90
51486;DHT22;37565;51.352;6.412;2022-08-19T15:23:19;25.00;99.90
51486;DHT22;37565;51.352;6.412;2022-08-19T15:25:47;25.00;99.90
51486;DHT22;37565;51.352;6.412;2022-08-19T15:28:22;25.00;99.90
51486;DHT22;37565;51.352;6.412;2022-08-19T15:30:50;25.00;99.90
51486;DHT22;37565;51.352;6.412;2022-08-19T15:33:20;25.00;99.90
51486;DHT22;37565;51.352;6.412;2022-08-19T15:35:49;25.00;99.90
51486;DHT22;37565;51.352;6.412;2022-08-19T15:38:18;25.00;99.90
51486;DHT22;37565;51.352;6.412;2022-08-19T15:40:48;25.10;99.90
51486;DHT22;37565;51.352;6.412;2022-08-19T15:43:18;25.10;99.90
51486;DHT22;37565;51.352;6.412;2022-08-19T15:45:48;25.10;99.90
51486;DHT22;37565;51.352;6.412;2022-08-19T15:48:16;25.10;99.90
51486;DHT22;37565;51.352;6.412;2022-08-19T15:50:45;25.10;99.90
51486;DHT22;37565;51.352;6.412;2022-08-19T15:53:13;25.10;99.90
51486;DHT22;37565;51.352;6.412;2022-08-19T15:55:44;25.20;99.90
51486;DHT22;37565;51.352;6.412;2022-08-19T15:58:14;25.20;99.90